createdAt,value
2023-05-14T00:00:33.222Z,52.90
2023-05-14T00:22:16.669Z,54.40
2023-05-14T00:44:45.591Z,56.80
2023-05-14T00:55:21.780Z,56.70
2023-05-14T01:06:19.981Z,56.10
2023-05-14T01:16:31.287Z,56.70
2023-05-14T01:26:41.079Z,57.90
2023-05-14T01:36:48.500Z,57.30
2023-05-14T01:46:57.053Z,56.40
2023-05-14T01:57:03.976Z,56.10
2023-05-14T02:07:14.497Z,56.70
2023-05-14T02:17:21.481Z,57.00
2023-05-14T02:27:46.635Z,57.10
2023-05-14T02:37:58.502Z,57.10
2023-05-14T02:48:50.263Z,56.60
2023-05-14T02:58:59.643Z,56.10
2023-05-14T03:09:06.912Z,55.50
2023-05-14T03:19:15.438Z,54.30
2023-05-14T03:29:24.078Z,54.60
2023-05-14T03:39:32.458Z,54.70
2023-05-14T03:49:39.352Z,55.60
2023-05-14T03:59:50.742Z,55.60
2023-05-14T04:10:02.551Z,55.10
2023-05-14T04:20:20.416Z,54.40
2023-05-14T04:30:27.844Z,54.20
2023-05-14T04:40:38.957Z,54.00
2023-05-14T05:03:32.595Z,57.40
2023-05-14T05:14:12.702Z,58.10
2023-05-14T05:24:22.320Z,58.60
2023-05-14T05:34:35.652Z,57.90
2023-05-14T05:44:49.627Z,57.60
2023-05-14T05:55:10.842Z,57.50
2023-05-14T06:05:32.549Z,57.50
2023-05-14T06:16:13.784Z,57.20
2023-05-14T06:39:29.916Z,57.20
2023-05-14T06:49:36.926Z,56.60
2023-05-14T06:59:50.981Z,56.30
2023-05-14T07:09:58.204Z,56.10
2023-05-14T07:20:12.118Z,56.00
2023-05-14T07:30:19.300Z,55.80
2023-05-14T07:40:31.057Z,55.50
2023-05-14T07:50:38.026Z,55.30
2023-05-14T08:00:54.016Z,55.20
2023-05-14T08:11:00.958Z,55.10
2023-05-14T08:21:32.848Z,55.00
2023-05-14T08:31:39.743Z,54.70
2023-05-14T08:41:49.005Z,54.60
2023-05-14T08:51:57.248Z,54.50
2023-05-14T09:02:08.592Z,54.20
2023-05-14T09:12:15.460Z,54.20
2023-05-14T09:22:26.800Z,54.20
2023-05-14T09:32:43.557Z,54.10
2023-05-14T09:42:53.615Z,54.00
2023-05-14T09:53:01.772Z,53.80
2023-05-14T10:03:13.699Z,53.70
2023-05-14T10:13:28.414Z,53.60
2023-05-14T10:23:41.367Z,53.50
2023-05-14T10:33:55.333Z,53.40
2023-05-14T10:44:15.325Z,53.30
2023-05-14T10:54:36.352Z,53.20
2023-05-14T11:04:58.329Z,53.00
2023-05-14T11:15:51.313Z,52.90
2023-05-14T11:36:46.649Z,52.80
2023-05-14T11:47:14.638Z,52.70
2023-05-14T11:57:38.802Z,52.60
2023-05-14T12:07:51.804Z,52.50
2023-05-14T12:39:34.233Z,52.30
2023-05-14T12:50:16.859Z,52.20
2023-05-14T13:00:37.278Z,52.20
2023-05-14T13:10:45.166Z,52.10
2023-05-14T13:21:26.578Z,51.90
2023-05-14T13:32:01.120Z,51.80
2023-05-14T13:43:04.116Z,51.70
2023-05-14T13:53:51.764Z,51.60
2023-05-14T14:04:12.387Z,51.50
2023-05-14T14:14:27.971Z,51.60
2023-05-14T14:24:43.958Z,51.60
2023-05-14T14:35:20.452Z,51.50
2023-05-14T14:45:31.533Z,51.40
2023-05-14T14:55:46.779Z,51.30
2023-05-14T15:05:55.003Z,51.30
2023-05-14T15:16:29.368Z,51.40
2023-05-14T15:26:46.185Z,50.30
2023-05-14T15:37:27.848Z,49.80
2023-05-14T15:47:42.490Z,49.00
2023-05-14T15:58:03.436Z,47.30
2023-05-14T16:08:15.741Z,47.10
2023-05-14T16:18:33.477Z,47.80
2023-05-14T16:28:52.072Z,48.70
2023-05-14T16:39:09.294Z,49.50
2023-05-14T16:49:23.843Z,50.60
2023-05-14T16:59:37.087Z,50.10
2023-05-14T17:09:44.213Z,51.60
2023-05-14T17:19:52.682Z,52.20
2023-05-14T17:29:59.500Z,52.80
2023-05-14T17:40:09.873Z,53.60
2023-05-14T17:50:24.515Z,53.50
2023-05-14T18:00:33.512Z,53.50
2023-05-14T18:10:40.810Z,54.40
2023-05-14T18:20:50.276Z,53.50
2023-05-14T18:30:57.109Z,51.30
2023-05-14T18:41:06.010Z,53.70
2023-05-14T18:51:13.344Z,54.40
2023-05-14T19:01:22.983Z,55.30
2023-05-14T19:11:30.889Z,56.30
2023-05-14T19:21:55.647Z,56.30
2023-05-14T19:32:05.716Z,57.10
2023-05-14T19:42:22.873Z,56.40
2023-05-14T19:52:29.730Z,56.30
2023-05-14T20:02:38.276Z,56.70
2023-05-14T20:12:45.246Z,55.90
2023-05-14T20:22:53.890Z,55.20
2023-05-14T20:33:01.014Z,55.30
2023-05-14T20:43:10.326Z,54.20
2023-05-14T20:53:17.162Z,53.80
2023-05-14T21:03:25.802Z,54.90
2023-05-14T21:13:32.815Z,55.10
2023-05-14T21:23:41.303Z,55.50
2023-05-14T21:33:48.129Z,55.60
2023-05-14T21:43:56.767Z,54.60
2023-05-14T21:54:03.650Z,55.30
2023-05-14T22:04:12.610Z,55.00
2023-05-14T22:14:19.497Z,54.30
2023-05-14T22:24:28.751Z,55.70
2023-05-14T22:34:35.674Z,57.00
2023-05-14T22:44:44.437Z,57.00
2023-05-14T22:54:51.955Z,57.20
2023-05-14T23:05:00.417Z,57.00
2023-05-14T23:15:07.746Z,57.40
2023-05-14T23:25:32.335Z,56.80
2023-05-14T23:35:42.716Z,57.40
2023-05-14T23:45:51.735Z,55.70
2023-05-14T23:55:58.541Z,56.60
